Time;durP1;ratioP1;P1;durP2;ratioP2;P2;SDS_P1;SDS_P2;PMS_P1;PMS_P2;Temp;Humidity;BMP_temperature;BMP_pressure;BME280_temperature;BME280_humidity;BME280_pressure;Samples;Min_cycle;Max_cycle;Signal;HPM_P1;HPM_P2
2021/06/22 00:00:28;;;;;;;0.20;0.20;;;18.90;99.90;;;;;;5089741;28;20632;-86
2021/06/22 00:02:54;;;;;;;0.20;0.20;;;18.90;99.90;;;;;;5097442;28;20258;-86
2021/06/22 00:05:21;;;;;;;0.40;0.40;;;18.90;99.90;;;;;;5090447;28;20184;-86
2021/06/22 00:07:48;;;;;;;0.27;0.27;;;18.80;99.90;;;;;;5092897;28;20263;-86
2021/06/22 00:10:16;;;;;;;0.40;0.33;;;18.30;99.90;;;;;;5102207;28;20248;-86
2021/06/22 00:12:42;;;;;;;0.40;0.40;;;18.20;99.90;;;;;;5100418;28;20570;-86
2021/06/22 00:15:11;;;;;;;0.47;0.47;;;17.90;99.90;;;;;;5091512;28;20553;-86
2021/06/22 00:17:37;;;;;;;0.60;0.60;;;17.40;99.90;;;;;;5103213;28;20196;-86
2021/06/22 00:20:05;;;;;;;0.30;0.30;;;17.10;99.90;;;;;;5100447;28;20190;-86
2021/06/22 00:22:30;;;;;;;0.53;0.50;;;16.80;99.90;;;;;;5099408;28;20230;-86
2021/06/22 00:25:21;;;;;;;0.50;0.50;;;16.70;99.90;;;;;;5099239;28;20188;-86
2021/06/22 00:27:47;;;;;;;0.30;0.30;;;16.40;99.90;;;;;;5090862;28;20187;-86
2021/06/22 00:30:13;;;;;;;0.30;0.30;;;16.20;99.90;;;;;;5105189;28;20213;-86
2021/06/22 00:32:39;;;;;;;0.20;0.20;;;16.20;99.90;;;;;;5091339;28;20217;-86
2021/06/22 00:35:06;;;;;;;0.30;0.30;;;16.20;99.90;;;;;;5083845;28;20182;-85
2021/06/22 00:37:32;;;;;;;2.37;1.43;;;16.10;99.90;;;;;;5084254;28;20189;-86
2021/06/22 00:39:58;;;;;;;0.40;0.40;;;16.20;99.90;;;;;;5107680;28;20189;-85
2021/06/22 00:42:23;;;;;;;0.30;0.30;;;16.20;99.90;;;;;;5093015;28;20810;-87
2021/06/22 00:44:54;;;;;;;0.40;0.40;;;16.10;99.90;;;;;;5079719;28;20197;-86
2021/06/22 00:47:21;;;;;;;0.37;0.27;;;16.10;99.90;;;;;;5078232;28;20560;-86
2021/06/22 00:49:48;;;;;;;0.60;0.60;;;15.90;99.90;;;;;;5085227;28;20194;-86
2021/06/22 00:52:14;;;;;;;0.30;0.30;;;15.90;99.90;;;;;;5093637;28;20207;-86
2021/06/22 00:54:40;;;;;;;0.43;0.40;;;15.90;99.90;;;;;;5086359;28;20559;-87
2021/06/22 00:57:09;;;;;;;0.30;0.30;;;15.90;99.90;;;;;;5104927;28;20198;-85
2021/06/22 00:59:35;;;;;;;0.20;0.20;;;16.20;99.90;;;;;;5088092;28;20179;-86
2021/06/22 01:02:02;;;;;;;0.20;0.20;;;16.40;99.90;;;;;;5099073;28;20228;-85
2021/06/22 01:04:28;;;;;;;0.37;0.37;;;16.40;99.90;;;;;;5088344;28;20182;-86
2021/06/22 01:06:55;;;;;;;0.40;0.33;;;16.40;99.90;;;;;;5099275;28;20256;-87
2021/06/22 01:09:21;;;;;;;0.23;0.23;;;16.50;99.90;;;;;;5081601;28;20245;-86
2021/06/22 01:11:46;;;;;;;0.30;0.30;;;16.40;99.90;;;;;;5081273;28;20208;-86
2021/06/22 01:14:12;;;;;;;0.10;0.10;;;16.30;99.90;;;;;;5091997;28;20889;-86
2021/06/22 01:16:38;;;;;;;0.10;0.10;;;16.30;99.90;;;;;;5103800;28;20298;-86
2021/06/22 01:19:07;;;;;;;0.23;0.23;;;16.40;99.90;;;;;;5095173;28;20278;-86
2021/06/22 01:21:33;;;;;;;0.10;0.10;;;16.70;99.90;;;;;;5084005;28;20215;-86
2021/06/22 01:24:13;;;;;;;0.50;0.50;;;16.90;99.90;;;;;;5089706;28;20178;-86
2021/06/22 01:26:44;;;;;;;0.20;0.20;;;17.00;99.90;;;;;;5093386;28;20218;-87
2021/06/22 01:29:10;;;;;;;0.20;0.20;;;16.90;99.90;;;;;;5107485;28;20183;-86
2021/06/22 01:31:36;;;;;;;0.40;0.40;;;16.80;99.90;;;;;;5104587;28;20211;-86
2021/06/22 01:34:02;;;;;;;0.20;0.20;;;17.10;99.90;;;;;;5108167;28;20551;-86
2021/06/22 01:36:30;;;;;;;0.10;0.10;;;17.30;99.90;;;;;;5084325;28;20180;-86
2021/06/22 01:38:57;;;;;;;0.43;0.40;;;17.20;99.90;;;;;;5097814;28;20533;-86
2021/06/22 01:41:22;;;;;;;0.30;0.30;;;16.80;99.90;;;;;;5085821;28;20203;-85
2021/06/22 01:43:48;;;;;;;0.40;0.40;;;16.50;99.90;;;;;;5104990;28;20189;-86
2021/06/22 01:46:14;;;;;;;0.20;0.20;;;16.50;99.90;;;;;;5078547;28;20270;-86
2021/06/22 01:48:40;;;;;;;0.37;0.37;;;16.50;99.90;;;;;;5090107;28;20184;-85
2021/06/22 01:51:06;;;;;;;0.50;0.50;;;16.30;99.90;;;;;;5089382;28;20217;-86
2021/06/22 01:53:31;;;;;;;0.30;0.30;;;16.10;99.90;;;;;;5088595;28;20178;-85
2021/06/22 01:55:57;;;;;;;0.40;0.40;;;16.00;99.90;;;;;;5086542;28;20241;-85
2021/06/22 01:58:23;;;;;;;0.27;0.27;;;15.90;99.90;;;;;;5089567;28;20270;-86
2021/06/22 02:00:52;;;;;;;0.20;0.20;;;15.90;99.90;;;;;;5096799;28;20210;-86
2021/06/22 02:03:20;;;;;;;0.10;0.10;;;15.80;99.90;;;;;;5106083;28;20242;-85
2021/06/22 02:05:47;;;;;;;0.30;0.30;;;15.70;99.90;;;;;;5088529;28;20554;-85
2021/06/22 02:08:13;;;;;;;0.10;0.10;;;15.70;99.90;;;;;;5111460;28;20186;-86
2021/06/22 02:10:39;;;;;;;0.10;0.10;;;15.70;99.90;;;;;;5088297;28;20213;-85
2021/06/22 02:13:05;;;;;;;0.20;0.20;;;15.70;99.90;;;;;;5096690;28;20601;-86
2021/06/22 02:15:31;;;;;;;0.50;0.50;;;15.70;99.90;;;;;;5076332;28;20279;-85
2021/06/22 02:17:58;;;;;;;0.30;0.30;;;15.80;99.90;;;;;;5098394;28;20184;-85
2021/06/22 02:20:24;;;;;;;0.10;0.10;;;16.00;99.90;;;;;;5088955;28;20192;-85
2021/06/22 02:22:50;;;;;;;0.10;0.10;;;16.20;99.90;;;;;;5107909;28;20214;-86
2021/06/22 02:25:16;;;;;;;0.30;0.30;;;16.30;99.90;;;;;;5093097;28;20185;-85
2021/06/22 02:27:42;;;;;;;0.30;0.30;;;16.30;99.90;;;;;;5094445;28;20534;-86
2021/06/22 02:30:11;;;;;;;0.20;0.20;;;16.30;99.90;;;;;;5092264;28;20208;-85
2021/06/22 02:32:37;;;;;;;0.20;0.20;;;16.40;99.90;;;;;;5107578;28;20191;-86
2021/06/22 02:35:09;;;;;;;0.50;0.37;;;16.20;99.90;;;;;;5108860;28;20217;-85
2021/06/22 02:37:36;;;;;;;0.10;0.10;;;16.00;99.90;;;;;;5085314;28;20265;-86
2021/06/22 02:40:02;;;;;;;0.10;0.10;;;15.90;99.90;;;;;;5082765;28;20179;-85
2021/06/22 02:42:28;;;;;;;0.10;0.10;;;15.70;99.90;;;;;;5107137;28;20206;-86
2021/06/22 02:44:54;;;;;;;0.20;0.20;;;15.70;99.90;;;;;;5093400;28;20278;-86
2021/06/22 02:47:19;;;;;;;0.13;0.13;;;15.70;99.90;;;;;;5100563;28;20644;-86
2021/06/22 02:49:45;;;;;;;0.10;0.10;;;15.80;99.90;;;;;;5111367;28;20198;-86
2021/06/22 02:52:11;;;;;;;0.20;0.20;;;16.00;99.90;;;;;;5096517;28;20208;-85
2021/06/22 02:54:39;;;;;;;0.10;0.10;;;16.10;99.90;;;;;;5099023;28;20235;-85
2021/06/22 02:57:09;;;;;;;0.20;0.20;;;16.30;99.90;;;;;;5092880;28;20196;-86
2021/06/22 02:59:36;;;;;;;0.23;0.23;;;16.10;99.90;;;;;;5088864;28;20266;-87
2021/06/22 03:02:03;;;;;;;0.10;0.10;;;16.00;99.90;;;;;;5092289;28;20204;-85
2021/06/22 03:04:29;;;;;;;0.10;0.10;;;15.90;99.90;;;;;;5095377;28;20178;-85
2021/06/22 03:06:55;;;;;;;0.30;0.30;;;15.70;99.90;;;;;;5097226;28;20806;-86
2021/06/22 03:09:32;;;;;;;0.20;0.20;;;15.70;99.90;;;;;;5088484;28;20183;-86
2021/06/22 03:11:58;;;;;;;0.10;0.10;;;15.70;99.90;;;;;;5101319;28;20573;-85
2021/06/22 03:14:24;;;;;;;0.10;0.10;;;15.70;99.90;;;;;;5095841;28;20180;-86
2021/06/22 03:16:51;;;;;;;0.10;0.10;;;15.60;99.90;;;;;;5095669;28;20181;-86
2021/06/22 03:19:17;;;;;;;0.10;0.10;;;15.70;99.90;;;;;;5102475;28;20552;-85
2021/06/22 03:21:44;;;;;;;0.13;0.13;;;15.60;99.90;;;;;;5092163;28;20225;-85
2021/06/22 03:24:14;;;;;;;0.33;0.33;;;15.50;99.90;;;;;;5089315;28;20191;-86
2021/06/22 03:26:40;;;;;;;0.17;0.13;;;15.40;99.90;;;;;;5084085;28;20209;-86
2021/06/22 03:29:06;;;;;;;0.10;0.10;;;15.30;99.90;;;;;;5093230;28;20657;-86
2021/06/22 03:31:33;;;;;;;0.20;0.20;;;15.30;99.90;;;;;;5080233;28;20293;-85
2021/06/22 03:33:58;;;;;;;0.20;0.20;;;15.30;99.90;;;;;;5103320;28;20169;-86
2021/06/22 03:36:24;;;;;;;0.30;0.10;;;15.30;99.90;;;;;;5087145;28;20175;-86
2021/06/22 03:38:50;;;;;;;0.00;0.00;;;15.40;99.90;;;;;;5099149;28;20177;-86
2021/06/22 03:41:16;;;;;;;0.03;0.03;;;15.50;99.90;;;;;;5093848;28;20569;-86
2021/06/22 03:43:42;;;;;;;0.10;0.10;;;15.50;99.90;;;;;;5103208;28;20188;-87
2021/06/22 03:46:08;;;;;;;0.30;0.20;;;15.60;99.90;;;;;;5107666;28;20671;-87
2021/06/22 03:48:34;;;;;;;0.10;0.10;;;15.60;99.90;;;;;;5108338;28;20195;-86
2021/06/22 03:51:00;;;;;;;0.10;0.10;;;15.60;99.90;;;;;;5101545;28;20256;-86
2021/06/22 03:53:26;;;;;;;0.40;0.40;;;15.70;99.90;;;;;;5081015;28;20184;-85
2021/06/22 03:55:52;;;;;;;0.10;0.10;;;16.00;99.90;;;;;;5096311;28;20694;-86
2021/06/22 03:58:17;;;;;;;0.10;0.10;;;15.90;99.90;;;;;;5095910;28;20179;-86
2021/06/22 04:00:43;;;;;;;0.10;0.10;;;15.90;99.90;;;;;;5083575;28;20191;-86
2021/06/22 04:03:13;;;;;;;0.10;0.10;;;16.90;99.90;;;;;;5092664;28;20202;-86
2021/06/22 04:05:39;;;;;;;0.13;0.13;;;19.00;99.90;;;;;;5084638;28;20276;-86
2021/06/22 04:08:05;;;;;;;0.10;0.10;;;19.90;99.90;;;;;;5106642;28;20642;-86
2021/06/22 04:10:30;;;;;;;0.10;0.10;;;20.40;99.90;;;;;;5093281;28;20230;-86
2021/06/22 04:12:56;;;;;;;0.10;0.10;;;20.90;99.90;;;;;;5104609;28;20745;-87
2021/06/22 04:15:22;;;;;;;0.10;0.10;;;19.30;99.90;;;;;;5083247;28;20191;-86
2021/06/22 04:17:48;;;;;;;0.20;0.20;;;18.70;99.90;;;;;;5092939;28;20654;-86
2021/06/22 04:20:14;;;;;;;0.10;0.10;;;19.50;99.90;;;;;;5097105;28;20183;-86
2021/06/22 04:22:39;;;;;;;0.10;0.10;;;19.40;99.90;;;;;;5094106;28;20683;-86
2021/06/22 04:25:06;;;;;;;0.10;0.10;;;19.40;99.90;;;;;;5092455;28;20183;-87
2021/06/22 04:27:31;;;;;;;0.10;0.10;;;19.20;99.90;;;;;;5089429;28;20184;-86
2021/06/22 04:29:57;;;;;;;0.10;0.10;;;19.30;99.90;;;;;;5102177;28;20287;-86
2021/06/22 04:32:23;;;;;;;0.10;0.10;;;19.00;99.90;;;;;;5094909;28;20212;-86
2021/06/22 04:34:48;;;;;;;0.20;0.20;;;19.00;99.90;;;;;;5083479;28;20547;-86
2021/06/22 04:37:14;;;;;;;0.10;0.10;;;18.20;99.90;;;;;;5079550;28;20180;-86
2021/06/22 04:39:40;;;;;;;0.10;0.10;;;17.80;99.90;;;;;;5100915;28;20547;-86
2021/06/22 04:42:05;;;;;;;0.17;0.17;;;17.60;99.90;;;;;;5097522;28;20681;-86
2021/06/22 04:44:31;;;;;;;0.10;0.10;;;17.50;99.90;;;;;;5098446;28;20169;-86
2021/06/22 04:46:57;;;;;;;0.10;0.10;;;17.40;99.90;;;;;;5092734;28;20179;-86
2021/06/22 04:49:22;;;;;;;0.10;0.10;;;17.70;99.90;;;;;;5098577;28;20253;-86
2021/06/22 04:51:48;;;;;;;0.20;0.20;;;17.80;99.90;;;;;;5100611;28;20214;-85
2021/06/22 04:54:15;;;;;;;0.10;0.10;;;18.00;99.90;;;;;;5094668;28;20682;-87
2021/06/22 04:56:41;;;;;;;0.10;0.10;;;18.20;99.90;;;;;;5104536;28;20182;-86
2021/06/22 04:59:06;;;;;;;0.10;0.10;;;18.50;99.90;;;;;;5101444;28;20183;-86
2021/06/22 05:01:32;;;;;;;0.10;0.10;;;18.90;99.90;;;;;;5093471;28;20206;-87
2021/06/22 05:04:21;;;;;;;0.30;0.30;;;19.10;99.90;;;;;;5100100;28;20554;-86
2021/06/22 05:06:46;;;;;;;0.10;0.10;;;19.40;99.90;;;;;;5099254;28;20263;-86
2021/06/22 05:09:12;;;;;;;0.10;0.10;;;19.40;99.90;;;;;;5099903;28;20279;-86
2021/06/22 05:11:37;;;;;;;0.10;0.10;;;19.40;99.90;;;;;;5085930;28;20782;-86
2021/06/22 05:14:03;;;;;;;0.10;0.10;;;19.40;99.90;;;;;;5096554;28;20180;-87
2021/06/22 05:16:29;;;;;;;0.10;0.10;;;19.30;99.90;;;;;;5079007;28;20239;-85
2021/06/22 05:18:55;;;;;;;0.10;0.10;;;19.20;99.90;;;;;;5089928;28;20207;-85
2021/06/22 05:21:20;;;;;;;0.20;0.20;;;19.40;99.90;;;;;;5098420;28;20220;-85
2021/06/22 05:23:50;;;;;;;0.10;0.10;;;19.50;99.90;;;;;;5109590;28;20194;-85
2021/06/22 05:26:16;;;;;;;0.10;0.10;;;19.50;99.90;;;;;;5080101;28;20181;-85
2021/06/22 05:28:41;;;;;;;0.10;0.10;;;19.70;99.90;;;;;;5090550;28;20188;-86
2021/06/22 05:31:08;;;;;;;0.10;0.10;;;19.80;99.90;;;;;;5105278;28;20739;-85
2021/06/22 05:33:34;;;;;;;0.27;0.27;;;19.60;99.90;;;;;;5084689;28;20187;-86
2021/06/22 05:35:59;;;;;;;0.10;0.10;;;19.40;99.90;;;;;;5084301;28;20199;-85
2021/06/22 05:38:25;;;;;;;0.10;0.10;;;19.40;99.90;;;;;;5107358;28;20180;-84
2021/06/22 05:40:51;;;;;;;0.10;0.10;;;19.90;99.90;;;;;;5083784;28;20191;-85
2021/06/22 05:43:16;;;;;;;0.30;0.30;;;19.90;99.90;;;;;;5084572;28;20222;-85
2021/06/22 05:45:42;;;;;;;0.20;0.20;;;20.10;99.90;;;;;;5084422;28;20180;-87
2021/06/22 05:48:08;;;;;;;0.30;0.30;;;19.60;99.90;;;;;;5081031;28;20189;-87
2021/06/22 05:50:33;;;;;;;0.10;0.10;;;19.00;99.90;;;;;;5088313;28;20216;-87
2021/06/22 05:53:01;;;;;;;0.10;0.10;;;19.10;99.90;;;;;;5090590;28;20299;-88
2021/06/22 05:55:27;;;;;;;0.33;0.17;;;19.60;99.90;;;;;;5103390;28;20254;-87
2021/06/22 05:57:54;;;;;;;0.27;0.27;;;20.10;99.90;;;;;;5085017;28;20653;-87
2021/06/22 06:00:29;;;;;;;0.20;0.20;;;20.00;99.90;;;;;;5096623;28;20187;-87
2021/06/22 06:02:55;;;;;;;0.17;0.17;;;19.60;99.90;;;;;;5092717;28;20576;-87
2021/06/22 06:05:24;;;;;;;0.10;0.10;;;19.60;99.90;;;;;;5086649;28;20188;-87
2021/06/22 06:07:51;;;;;;;0.20;0.20;;;19.50;99.90;;;;;;5089149;28;20214;-88
2021/06/22 06:10:18;;;;;;;0.13;0.13;;;19.10;99.90;;;;;;5088957;28;20235;-87
2021/06/22 06:12:44;;;;;;;0.10;0.10;;;19.40;99.90;;;;;;5107043;28;20200;-88
2021/06/22 06:15:11;;;;;;;0.10;0.10;;;19.10;99.90;;;;;;5106200;28;20181;-88
2021/06/22 06:17:37;;;;;;;0.10;0.10;;;18.80;99.90;;;;;;5082266;28;20277;-87
2021/06/22 06:20:08;;;;;;;0.10;0.10;;;19.30;99.90;;;;;;5081876;28;20664;-87
2021/06/22 06:22:35;;;;;;;0.20;0.20;;;19.70;99.90;;;;;;5096404;28;20226;-87
2021/06/22 06:25:03;;;;;;;0.20;0.20;;;19.30;99.90;;;;;;5094914;28;20188;-87
2021/06/22 06:27:45;;;;;;;0.20;0.20;;;18.70;99.90;;;;;;5080410;28;20191;-87
2021/06/22 06:30:19;;;;;;;0.20;0.20;;;18.20;99.90;;;;;;5091415;28;20692;-87
2021/06/22 06:32:46;;;;;;;0.20;0.20;;;17.90;99.90;;;;;;5087312;28;20222;-86
2021/06/22 06:35:12;;;;;;;0.17;0.17;;;17.80;99.90;;;;;;5086851;28;20181;-85
2021/06/22 06:37:38;;;;;;;0.10;0.10;;;18.10;99.90;;;;;;5088443;28;20618;-85
2021/06/22 06:40:05;;;;;;;0.20;0.20;;;18.10;99.90;;;;;;5107200;28;20197;-86
2021/06/22 06:42:31;;;;;;;0.20;0.20;;;18.50;99.90;;;;;;5083642;28;20210;-86
2021/06/22 06:44:57;;;;;;;0.20;0.20;;;18.30;99.90;;;;;;5088188;28;20558;-86
2021/06/22 06:47:22;;;;;;;0.60;0.60;;;18.10;99.90;;;;;;5084994;28;20564;-86
2021/06/22 06:49:48;;;;;;;0.10;0.10;;;18.00;99.90;;;;;;5091984;28;20191;-85
2021/06/22 06:52:14;;;;;;;0.10;0.10;;;18.60;99.90;;;;;;5083132;28;20276;-86
2021/06/22 06:54:41;;;;;;;0.10;0.10;;;18.70;99.90;;;;;;5092183;28;20186;-85
2021/06/22 06:57:07;;;;;;;0.40;0.20;;;18.50;99.90;;;;;;5092845;28;20238;-86
2021/06/22 06:59:32;;;;;;;0.10;0.10;;;18.10;99.90;;;;;;5082116;28;20184;-85
2021/06/22 07:01:58;;;;;;;0.10;0.10;;;18.10;99.90;;;;;;5090924;28;20573;-85
2021/06/22 07:04:24;;;;;;;0.10;0.10;;;18.00;99.90;;;;;;5086192;28;20277;-85
2021/06/22 07:06:49;;;;;;;0.10;0.10;;;18.10;99.90;;;;;;5092381;28;20201;-85
2021/06/22 07:09:15;;;;;;;0.10;0.10;;;18.10;99.90;;;;;;5088424;28;20195;-86
2021/06/22 07:11:41;;;;;;;0.10;0.10;;;18.10;99.90;;;;;;5098235;28;20264;-85
2021/06/22 07:14:07;;;;;;;0.50;0.50;;;17.90;99.90;;;;;;5077294;28;20198;-85
2021/06/22 07:16:33;;;;;;;0.73;0.27;;;17.80;99.90;;;;;;5085047;28;20697;-86
2021/06/22 07:18:59;;;;;;;0.10;0.10;;;17.70;99.90;;;;;;5091176;28;20547;-86
2021/06/22 07:21:25;;;;;;;0.20;0.20;;;17.80;99.90;;;;;;5082111;28;20219;-85
2021/06/22 07:23:52;;;;;;;0.73;0.20;;;18.10;99.90;;;;;;5086840;28;20298;-85
2021/06/22 07:26:18;;;;;;;0.10;0.10;;;18.00;99.90;;;;;;5096367;28;20188;-85
2021/06/22 07:28:44;;;;;;;0.10;0.10;;;17.90;99.90;;;;;;5082655;28;20566;-85
2021/06/22 07:31:11;;;;;;;0.20;0.20;;;17.70;99.90;;;;;;5107508;28;20211;-86
2021/06/22 07:33:38;;;;;;;0.00;0.00;;;18.00;99.90;;;;;;5084546;28;20197;-85
2021/06/22 07:36:06;;;;;;;0.27;0.27;;;18.60;99.90;;;;;;5101089;28;20622;-85
2021/06/22 07:38:32;;;;;;;0.20;0.20;;;19.10;99.90;;;;;;5092527;28;20300;-85
2021/06/22 07:40:58;;;;;;;0.20;0.20;;;18.90;99.90;;;;;;5090170;28;20195;-86
2021/06/22 07:43:24;;;;;;;0.10;0.10;;;19.10;99.90;;;;;;5088763;28;20188;-86
2021/06/22 07:45:49;;;;;;;0.20;0.20;;;19.20;99.90;;;;;;5088384;28;20201;-85
2021/06/22 07:48:15;;;;;;;0.10;0.10;;;19.80;99.90;;;;;;5085332;28;20612;-87
2021/06/22 07:50:41;;;;;;;0.10;0.10;;;19.80;99.90;;;;;;5090473;28;20218;-85
2021/06/22 07:53:06;;;;;;;0.10;0.10;;;19.90;99.90;;;;;;5088195;28;20583;-87
2021/06/22 07:55:32;;;;;;;0.27;0.27;;;20.30;99.90;;;;;;5104341;28;20563;-87
2021/06/22 07:57:58;;;;;;;0.13;0.13;;;19.70;99.90;;;;;;5082021;28;20192;-89
2021/06/22 08:02:58;;;;;;;0.10;0.10;;;20.40;99.90;;;;;;5091208;28;20756;-88
2021/06/22 08:05:24;;;;;;;0.10;0.10;;;21.20;99.90;;;;;;5080566;28;20275;-87
2021/06/22 08:07:50;;;;;;;0.20;0.20;;;21.20;99.90;;;;;;5093897;28;20181;-88
2021/06/22 08:10:16;;;;;;;0.10;0.10;;;21.00;99.90;;;;;;5093617;28;20780;-88
2021/06/22 08:12:41;;;;;;;0.10;0.10;;;21.80;99.90;;;;;;5083720;28;20266;-87
2021/06/22 08:15:08;;;;;;;0.20;0.20;;;22.50;99.90;;;;;;5107130;28;20735;-88
2021/06/22 08:17:34;;;;;;;0.10;0.10;;;22.30;99.90;;;;;;5102283;28;20213;-88
2021/06/22 08:19:59;;;;;;;0.20;0.20;;;22.70;99.90;;;;;;5092925;28;20203;-87
2021/06/22 08:22:26;;;;;;;0.10;0.10;;;23.10;99.90;;;;;;5088172;28;22253;-88
2021/06/22 08:24:52;;;;;;;0.10;0.10;;;22.10;99.90;;;;;;5086952;28;20199;-87
2021/06/22 08:27:18;;;;;;;0.20;0.20;;;22.20;99.90;;;;;;5092390;28;20210;-88
2021/06/22 08:29:43;;;;;;;0.10;0.10;;;22.10;99.90;;;;;;5094754;28;20270;-87
2021/06/22 08:32:09;;;;;;;0.10;0.10;;;21.90;99.90;;;;;;5092304;28;20650;-88
2021/06/22 08:34:35;;;;;;;0.10;0.10;;;21.90;99.90;;;;;;5088525;28;20192;-87
2021/06/22 08:37:00;;;;;;;0.10;0.10;;;21.40;99.90;;;;;;5084784;28;20185;-87
2021/06/22 08:39:26;;;;;;;0.10;0.10;;;21.30;99.90;;;;;;5095626;28;20173;-86
2021/06/22 08:41:53;;;;;;;0.10;0.10;;;20.50;99.90;;;;;;5081209;28;20200;-87
2021/06/22 08:44:23;;;;;;;0.10;0.10;;;20.90;99.90;;;;;;5095295;28;20187;-85
2021/06/22 08:46:50;;;;;;;0.50;0.40;;;20.40;99.90;;;;;;5079835;28;20196;-85
2021/06/22 08:49:15;;;;;;;0.20;0.20;;;21.00;99.90;;;;;;5082180;28;20679;-87
2021/06/22 08:51:42;;;;;;;0.13;0.13;;;20.90;99.90;;;;;;5092020;28;20215;-87
2021/06/22 08:54:09;;;;;;;0.50;0.20;;;20.50;99.90;;;;;;5093363;28;20183;-89
2021/06/22 08:56:35;;;;;;;0.10;0.10;;;20.30;99.90;;;;;;5082444;28;20176;-87
2021/06/22 08:59:02;;;;;;;0.20;0.20;;;19.80;99.90;;;;;;5097734;28;20186;-87
2021/06/22 09:01:28;;;;;;;0.20;0.20;;;19.70;99.90;;;;;;5086444;28;20203;-87
2021/06/22 09:03:53;;;;;;;0.10;0.10;;;19.70;99.90;;;;;;5090439;28;20199;-87
2021/06/22 09:06:23;;;;;;;0.20;0.20;;;19.90;99.90;;;;;;5092668;28;20660;-86
2021/06/22 09:08:55;;;;;;;0.10;0.10;;;19.30;99.90;;;;;;5091330;28;20283;-87
2021/06/22 09:11:21;;;;;;;0.20;0.20;;;19.10;99.90;;;;;;5081997;28;20203;-87
2021/06/22 09:14:00;;;;;;;0.30;0.30;;;19.20;99.90;;;;;;5083873;28;20184;-87
2021/06/22 09:16:26;;;;;;;0.10;0.10;;;19.40;99.90;;;;;;5087649;28;20225;-87
2021/06/22 09:19:04;;;;;;;0.23;0.23;;;19.30;99.90;;;;;;5085062;28;20183;-87
2021/06/22 09:21:45;;;;;;;0.13;0.13;;;19.30;99.90;;;;;;5092617;28;20223;-87
2021/06/22 09:24:19;;;;;;;0.20;0.20;;;19.50;99.90;;;;;;5089554;28;20216;-87
2021/06/22 09:26:46;;;;;;;0.10;0.10;;;20.10;99.90;;;;;;5085100;28;20544;-86
2021/06/22 09:29:15;;;;;;;0.10;0.10;;;20.10;99.90;;;;;;5078646;28;20203;-87
2021/06/22 09:32:00;;;;;;;0.33;0.23;;;19.90;99.90;;;;;;5088720;28;20700;-87
2021/06/22 09:34:28;;;;;;;0.20;0.20;;;19.40;99.90;;;;;;5085879;28;20186;-87
2021/06/22 09:36:56;;;;;;;0.30;0.30;;;19.10;99.90;;;;;;5086025;28;20226;-87
2021/06/22 09:39:23;;;;;;;0.20;0.20;;;18.80;99.90;;;;;;5078323;28;20177;-88
2021/06/22 09:41:51;;;;;;;0.10;0.10;;;18.70;99.90;;;;;;5089469;28;20273;-87
2021/06/22 09:44:21;;;;;;;0.10;0.10;;;18.50;99.90;;;;;;5100123;28;20249;-87
2021/06/22 09:46:54;;;;;;;0.27;0.27;;;18.70;99.90;;;;;;5104756;28;20188;-87
2021/06/22 09:49:23;;;;;;;0.50;0.50;;;18.90;99.90;;;;;;5100005;28;20195;-88
2021/06/22 09:51:52;;;;;;;0.20;0.20;;;19.10;99.90;;;;;;5086126;28;20208;-88
2021/06/22 09:54:21;;;;;;;0.17;0.17;;;18.90;99.90;;;;;;5081783;28;20310;-87
2021/06/22 09:56:51;;;;;;;0.10;0.10;;;18.80;99.90;;;;;;5096341;28;20180;-88
2021/06/22 09:59:17;;;;;;;0.10;0.10;;;18.90;99.90;;;;;;5081352;28;20186;-87
2021/06/22 10:01:43;;;;;;;0.20;0.20;;;18.60;99.90;;;;;;5107916;28;20247;-88
2021/06/22 10:04:13;;;;;;;0.20;0.20;;;18.90;99.90;;;;;;5095246;28;20287;-87
2021/06/22 10:06:39;;;;;;;0.20;0.20;;;19.00;99.90;;;;;;5085425;28;20275;-88
2021/06/22 10:09:05;;;;;;;0.13;0.13;;;18.60;99.90;;;;;;5085361;28;20275;-88
2021/06/22 10:11:38;;;;;;;0.60;0.40;;;18.60;99.90;;;;;;5094574;28;20205;-88
2021/06/22 10:14:08;;;;;;;0.20;0.20;;;18.30;99.90;;;;;;5082467;28;20184;-88
2021/06/22 10:16:34;;;;;;;0.10;0.10;;;18.40;99.90;;;;;;5087969;28;20183;-88
2021/06/22 10:19:02;;;;;;;0.17;0.17;;;18.40;99.90;;;;;;5096959;28;20185;-87
2021/06/22 10:21:29;;;;;;;0.20;0.20;;;18.60;99.90;;;;;;5091930;28;20220;-87
2021/06/22 10:23:56;;;;;;;0.10;0.10;;;18.30;99.90;;;;;;5085006;28;20221;-87
2021/06/22 10:26:25;;;;;;;0.10;0.10;;;18.40;99.90;;;;;;5092527;28;20230;-87
2021/06/22 10:28:51;;;;;;;0.20;0.20;;;18.20;99.90;;;;;;5101282;28;20283;-88
2021/06/22 10:31:18;;;;;;;0.20;0.20;;;18.20;99.90;;;;;;5096339;28;20757;-87
2021/06/22 10:33:44;;;;;;;0.20;0.20;;;17.90;99.90;;;;;;5082520;28;20242;-87
2021/06/22 10:36:28;;;;;;;0.13;0.13;;;17.70;99.90;;;;;;5100693;28;20182;-87
2021/06/22 10:38:59;;;;;;;0.30;0.30;;;17.40;99.90;;;;;;5091595;28;20593;-86
2021/06/22 10:41:32;;;;;;;0.10;0.10;;;17.40;99.90;;;;;;5080286;28;20569;-88
2021/06/22 10:43:57;;;;;;;2.90;1.27;;;17.60;99.90;;;;;;5095329;28;20234;-86
2021/06/22 10:46:24;;;;;;;0.30;0.30;;;17.70;99.90;;;;;;5085027;28;20213;-87
2021/06/22 10:48:52;;;;;;;3.60;0.30;;;17.70;99.90;;;;;;5083247;28;20240;-86
2021/06/22 10:51:37;;;;;;;0.20;0.20;;;17.90;99.90;;;;;;5089939;28;20215;-86
2021/06/22 10:54:02;;;;;;;0.20;0.20;;;18.20;99.90;;;;;;5094418;28;20215;-87
2021/06/22 10:56:29;;;;;;;0.13;0.13;;;18.20;99.90;;;;;;5093969;28;20195;-86
2021/06/22 10:59:15;;;;;;;0.37;0.37;;;18.00;99.90;;;;;;5078527;28;20183;-86
2021/06/22 11:01:53;;;;;;;0.30;0.30;;;18.10;99.90;;;;;;5095217;28;20199;-86
2021/06/22 11:04:24;;;;;;;0.10;0.10;;;18.30;99.90;;;;;;5086227;28;20187;-86
2021/06/22 11:07:08;;;;;;;0.10;0.10;;;18.60;99.90;;;;;;5089402;28;20681;-87
2021/06/22 11:09:37;;;;;;;0.20;0.20;;;19.00;99.90;;;;;;5103449;28;20195;-86
2021/06/22 11:12:18;;;;;;;0.10;0.10;;;19.50;99.90;;;;;;5096293;28;20212;-87
2021/06/22 11:14:59;;;;;;;0.23;0.23;;;19.30;99.90;;;;;;5105747;28;20180;-86
2021/06/22 11:17:43;;;;;;;0.20;0.20;;;19.30;99.90;;;;;;5096904;28;20552;-86
2021/06/22 11:20:13;;;;;;;0.17;0.17;;;19.90;99.90;;;;;;5085747;28;20179;-86
2021/06/22 11:22:58;;;;;;;0.80;0.37;;;19.60;99.90;;;;;;5086037;28;20245;-87
2021/06/22 11:25:24;;;;;;;0.23;0.23;;;19.60;99.90;;;;;;5092651;28;20180;-86
2021/06/22 11:28:02;;;;;;;0.10;0.10;;;19.30;99.90;;;;;;5096586;28;20235;-86
2021/06/22 11:30:55;;;;;;;0.20;0.20;;;19.30;99.90;;;;;;5102977;28;20222;-86
2021/06/22 11:33:29;;;;;;;0.17;0.17;;;19.00;99.90;;;;;;5088216;28;20204;-86
2021/06/22 11:36:20;;;;;;;0.20;0.20;;;19.10;99.90;;;;;;5092402;28;20213;-86
2021/06/22 11:39:07;;;;;;;0.23;0.23;;;18.90;99.90;;;;;;5102739;28;20178;-86
2021/06/22 11:41:34;;;;;;;0.20;0.20;;;18.90;99.90;;;;;;5094119;28;20580;-87
2021/06/22 11:44:08;;;;;;;0.60;0.60;;;19.10;99.90;;;;;;5089319;28;20610;-86
2021/06/22 11:46:36;;;;;;;0.30;0.20;;;18.90;99.90;;;;;;5091148;28;20238;-86
2021/06/22 11:49:03;;;;;;;0.20;0.20;;;19.10;99.90;;;;;;5090487;28;20188;-86
2021/06/22 11:51:49;;;;;;;0.10;0.10;;;19.10;99.90;;;;;;5091484;28;20747;-86
2021/06/22 11:54:20;;;;;;;0.20;0.20;;;19.30;99.90;;;;;;5083853;28;20198;-86
2021/06/22 11:56:46;;;;;;;0.40;0.40;;;19.40;99.90;;;;;;5100873;28;20293;-86
2021/06/22 11:59:13;;;;;;;0.17;0.17;;;19.00;99.90;;;;;;5088891;28;20204;-85
2021/06/22 12:01:46;;;;;;;0.20;0.20;;;18.90;99.90;;;;;;5085820;28;20205;-86
2021/06/22 12:04:12;;;;;;;0.20;0.20;;;18.80;99.90;;;;;;5104928;28;20254;-86
2021/06/22 12:06:41;;;;;;;0.30;0.30;;;18.80;99.90;;;;;;5088044;28;20562;-87
2021/06/22 12:09:18;;;;;;;0.30;0.30;;;18.80;99.90;;;;;;5082858;28;20267;-87
2021/06/22 12:11:45;;;;;;;0.33;0.33;;;18.80;99.90;;;;;;5088863;27;20646;-86
2021/06/22 12:14:15;;;;;;;0.30;0.30;;;18.70;99.90;;;;;;5087822;28;20184;-87
2021/06/22 12:16:44;;;;;;;0.10;0.10;;;18.70;99.90;;;;;;5100685;28;20218;-87
2021/06/22 12:19:23;;;;;;;0.20;0.20;;;18.50;99.90;;;;;;5082067;28;20559;-87
2021/06/22 12:21:55;;;;;;;0.20;0.20;;;18.40;99.90;;;;;;5101625;28;20570;-86
2021/06/22 12:24:22;;;;;;;0.13;0.13;;;18.40;99.90;;;;;;5084460;28;20184;-87
2021/06/22 12:26:51;;;;;;;0.10;0.10;;;18.40;99.90;;;;;;5082074;28;20188;-86
2021/06/22 12:29:30;;;;;;;0.10;0.10;;;18.20;99.90;;;;;;5091619;28;20674;-87
2021/06/22 12:32:24;;;;;;;0.20;0.20;;;18.00;99.90;;;;;;5087855;28;20212;-86
2021/06/22 12:34:50;;;;;;;0.17;0.17;;;18.00;99.90;;;;;;5084341;28;20603;-86
2021/06/22 12:37:21;;;;;;;0.30;0.30;;;18.00;99.90;;;;;;5093285;28;20186;-86
2021/06/22 12:39:48;;;;;;;0.20;0.20;;;18.20;99.90;;;;;;5095546;28;20185;-87
2021/06/22 12:42:20;;;;;;;0.20;0.20;;;18.00;99.90;;;;;;5088327;28;20611;-86
2021/06/22 12:44:47;;;;;;;0.20;0.20;;;18.00;99.90;;;;;;5096261;28;20656;-86
2021/06/22 12:47:13;;;;;;;0.30;0.30;;;18.00;99.90;;;;;;5092930;28;20824;-86
2021/06/22 12:49:39;;;;;;;0.20;0.20;;;17.80;99.90;;;;;;5103164;28;20363;-87
2021/06/22 12:52:07;;;;;;;0.37;0.37;;;17.60;99.90;;;;;;5097306;28;20211;-86
2021/06/22 12:54:36;;;;;;;0.20;0.20;;;17.60;99.90;;;;;;5097800;28;20561;-87